KCLM/CLM METAR and TAF weather

Enter ICAO airport designator
Station Type Date Time Source
KCLM METAR 2018/04/23 10:53 UTC NOAA

KCLM 231053Z AUTO 24007KT 10SM CLR 04/M01 A3037 RMK AO2 SLP285 T00391006


Station Type Date Time Source
KCLM Decoded METAR 2018/04/23 10:53 UTC NOAA

PORT ANGELES FAIRCHILD INTERNATIONAL , WA, United States (KCLM) 48-07N 123-30W 85M
Apr 23, 2018 - 06:53 AM EDT / 2018.04.23 1053 UTC
Wind: from the WSW (240 degrees) at 8 MPH (7 KT):0
Visibility: 10 mile(s):0
Sky conditions: clear
Temperature: 39.0 F (3.9 C)
Dew Point: 30.9 F (-0.6 C)
Relative Humidity: 72%
Pressure (altimeter): 30.37 in. Hg (1028 hPa)
ob: KCLM 231053Z AUTO 24007KT 10SM CLR 04/M01 A3037 RMK AO2 SLP285 T00391006
cycle: 11

Station Type Date Time Source
KCLM TAF 2018/04/23 06:24 UTC NOAA

TAF KCLM 230521Z 2306/2406 23004KT P6SM SKC
FM231800 08005KT P6SM SKC


Example: see airport list